sensor_id;sensor_type;location;lat;lon;timestamp;P1;durP1;ratioP1;P2;durP2;ratioP2
17199;SDS011;8716;52.268;20.968;2023-01-29T00:00:13;4.15;;;3.92;;
17199;SDS011;8716;52.268;20.968;2023-01-29T00:02:45;5.53;;;4.43;;
17199;SDS011;8716;52.268;20.968;2023-01-29T00:05:15;12.68;;;7.43;;
17199;SDS011;8716;52.268;20.968;2023-01-29T00:07:56;7.10;;;6.70;;
17199;SDS011;8716;52.268;20.968;2023-01-29T00:10:24;4.32;;;3.90;;
17199;SDS011;8716;52.268;20.968;2023-01-29T00:12:53;7.28;;;6.70;;
17199;SDS011;8716;52.268;20.968;2023-01-29T00:15:22;3.78;;;3.58;;
17199;SDS011;8716;52.268;20.968;2023-01-29T00:17:51;8.23;;;7.82;;
17199;SDS011;8716;52.268;20.968;2023-01-29T00:20:21;4.63;;;4.32;;
17199;SDS011;8716;52.268;20.968;2023-01-29T00:22:50;3.97;;;3.78;;
17199;SDS011;8716;52.268;20.968;2023-01-29T00:25:18;4.53;;;3.63;;
17199;SDS011;8716;52.268;20.968;2023-01-29T00:27:47;3.78;;;3.60;;
17199;SDS011;8716;52.268;20.968;2023-01-29T00:30:15;4.90;;;4.60;;
17199;SDS011;8716;52.268;20.968;2023-01-29T00:32:46;4.78;;;4.47;;
17199;SDS011;8716;52.268;20.968;2023-01-29T00:35:17;17.50;;;5.78;;
17199;SDS011;8716;52.268;20.968;2023-01-29T00:37:45;3.45;;;3.25;;
17199;SDS011;8716;52.268;20.968;2023-01-29T00:40:13;5.63;;;4.90;;
17199;SDS011;8716;52.268;20.968;2023-01-29T00:42:44;3.78;;;3.58;;
17199;SDS011;8716;52.268;20.968;2023-01-29T00:45:30;3.97;;;3.78;;
17199;SDS011;8716;52.268;20.968;2023-01-29T00:48:03;6.38;;;6.00;;
17199;SDS011;8716;52.268;20.968;2023-01-29T00:50:32;3.75;;;3.15;;
17199;SDS011;8716;52.268;20.968;2023-01-29T00:53:00;3.92;;;3.53;;
17199;SDS011;8716;52.268;20.968;2023-01-29T00:55:30;5.78;;;4.63;;
17199;SDS011;8716;52.268;20.968;2023-01-29T00:57:58;7.20;;;4.80;;
17199;SDS011;8716;52.268;20.968;2023-01-29T01:00:27;2.80;;;2.60;;
17199;SDS011;8716;52.268;20.968;2023-01-29T01:02:58;3.35;;;3.15;;
17199;SDS011;8716;52.268;20.968;2023-01-29T01:05:32;3.08;;;2.88;;
17199;SDS011;8716;52.268;20.968;2023-01-29T01:08:02;3.55;;;3.35;;
17199;SDS011;8716;52.268;20.968;2023-01-29T01:10:57;5.03;;;4.63;;
17199;SDS011;8716;52.268;20.968;2023-01-29T01:13:25;3.00;;;2.65;;
17199;SDS011;8716;52.268;20.968;2023-01-29T01:15:53;7.75;;;3.72;;
17199;SDS011;8716;52.268;20.968;2023-01-29T01:18:22;3.33;;;3.13;;
17199;SDS011;8716;52.268;20.968;2023-01-29T01:20:57;2.92;;;2.70;;
17199;SDS011;8716;52.268;20.968;2023-01-29T01:23:25;3.90;;;3.70;;
17199;SDS011;8716;52.268;20.968;2023-01-29T01:25:53;3.72;;;3.58;;
17199;SDS011;8716;52.268;20.968;2023-01-29T01:28:22;5.70;;;5.40;;
17199;SDS011;8716;52.268;20.968;2023-01-29T01:30:50;4.13;;;3.92;;
17199;SDS011;8716;52.268;20.968;2023-01-29T01:33:21;4.85;;;4.30;;
17199;SDS011;8716;52.268;20.968;2023-01-29T01:35:51;4.03;;;3.53;;
17199;SDS011;8716;52.268;20.968;2023-01-29T01:38:21;4.25;;;3.65;;
17199;SDS011;8716;52.268;20.968;2023-01-29T01:40:53;5.35;;;5.05;;
17199;SDS011;8716;52.268;20.968;2023-01-29T01:43:21;4.35;;;4.05;;
17199;SDS011;8716;52.268;20.968;2023-01-29T01:45:49;3.00;;;2.80;;
17199;SDS011;8716;52.268;20.968;2023-01-29T01:48:19;3.25;;;3.05;;
17199;SDS011;8716;52.268;20.968;2023-01-29T01:50:51;4.03;;;3.83;;
17199;SDS011;8716;52.268;20.968;2023-01-29T01:53:30;3.30;;;3.10;;
17199;SDS011;8716;52.268;20.968;2023-01-29T01:56:05;3.88;;;3.67;;
17199;SDS011;8716;52.268;20.968;2023-01-29T01:58:39;5.32;;;4.30;;
17199;SDS011;8716;52.268;20.968;2023-01-29T02:01:13;4.20;;;3.95;;
17199;SDS011;8716;52.268;20.968;2023-01-29T02:03:44;5.13;;;4.82;;
17199;SDS011;8716;52.268;20.968;2023-01-29T02:06:34;6.20;;;3.63;;
17199;SDS011;8716;52.268;20.968;2023-01-29T02:09:26;4.75;;;3.80;;
17199;SDS011;8716;52.268;20.968;2023-01-29T02:12:00;3.90;;;3.58;;
17199;SDS011;8716;52.268;20.968;2023-01-29T02:14:29;6.50;;;6.15;;
17199;SDS011;8716;52.268;20.968;2023-01-29T02:17:00;8.73;;;3.15;;
17199;SDS011;8716;52.268;20.968;2023-01-29T02:19:31;5.47;;;4.70;;
17199;SDS011;8716;52.268;20.968;2023-01-29T02:22:26;3.60;;;3.40;;
17199;SDS011;8716;52.268;20.968;2023-01-29T02:25:12;3.55;;;3.35;;
17199;SDS011;8716;52.268;20.968;2023-01-29T02:28:01;5.78;;;3.70;;
17199;SDS011;8716;52.268;20.968;2023-01-29T02:30:49;4.35;;;4.05;;
17199;SDS011;8716;52.268;20.968;2023-01-29T02:33:28;3.33;;;3.13;;
17199;SDS011;8716;52.268;20.968;2023-01-29T02:36:07;14.55;;;5.22;;
17199;SDS011;8716;52.268;20.968;2023-01-29T02:38:44;4.43;;;3.08;;
17199;SDS011;8716;52.268;20.968;2023-01-29T02:41:20;6.60;;;6.20;;
17199;SDS011;8716;52.268;20.968;2023-01-29T02:43:56;4.43;;;4.13;;
17199;SDS011;8716;52.268;20.968;2023-01-29T02:46:31;5.82;;;4.38;;
17199;SDS011;8716;52.268;20.968;2023-01-29T02:49:05;4.35;;;3.42;;
17199;SDS011;8716;52.268;20.968;2023-01-29T02:51:41;7.68;;;7.28;;
17199;SDS011;8716;52.268;20.968;2023-01-29T02:54:12;5.03;;;4.72;;
17199;SDS011;8716;52.268;20.968;2023-01-29T02:56:45;8.13;;;6.10;;
17199;SDS011;8716;52.268;20.968;2023-01-29T02:59:20;4.45;;;4.15;;
17199;SDS011;8716;52.268;20.968;2023-01-29T03:01:52;9.77;;;3.33;;
17199;SDS011;8716;52.268;20.968;2023-01-29T03:04:25;4.68;;;3.78;;
17199;SDS011;8716;52.268;20.968;2023-01-29T03:06:56;6.13;;;5.80;;
17199;SDS011;8716;52.268;20.968;2023-01-29T03:09:30;7.63;;;5.13;;
17199;SDS011;8716;52.268;20.968;2023-01-29T03:12:03;5.97;;;5.68;;
17199;SDS011;8716;52.268;20.968;2023-01-29T03:14:48;5.80;;;4.05;;
17199;SDS011;8716;52.268;20.968;2023-01-29T03:17:40;4.38;;;4.10;;
17199;SDS011;8716;52.268;20.968;2023-01-29T03:20:15;5.88;;;5.57;;
17199;SDS011;8716;52.268;20.968;2023-01-29T03:22:48;6.75;;;6.35;;
17199;SDS011;8716;52.268;20.968;2023-01-29T03:25:20;3.70;;;3.50;;
17199;SDS011;8716;52.268;20.968;2023-01-29T03:28:08;3.83;;;3.63;;
17199;SDS011;8716;52.268;20.968;2023-01-29T03:30:59;6.75;;;6.35;;
17199;SDS011;8716;52.268;20.968;2023-01-29T03:33:57;4.75;;;4.40;;
17199;SDS011;8716;52.268;20.968;2023-01-29T03:36:31;4.32;;;3.90;;
17199;SDS011;8716;52.268;20.968;2023-01-29T03:39:05;9.70;;;7.40;;
17199;SDS011;8716;52.268;20.968;2023-01-29T03:41:37;10.48;;;4.93;;
17199;SDS011;8716;52.268;20.968;2023-01-29T03:44:11;4.05;;;3.85;;
17199;SDS011;8716;52.268;20.968;2023-01-29T03:46:47;7.15;;;4.47;;
17199;SDS011;8716;52.268;20.968;2023-01-29T03:49:23;5.13;;;4.82;;
17199;SDS011;8716;52.268;20.968;2023-01-29T03:52:02;8.90;;;4.25;;
17199;SDS011;8716;52.268;20.968;2023-01-29T03:54:42;4.60;;;4.30;;
17199;SDS011;8716;52.268;20.968;2023-01-29T03:57:22;7.60;;;5.35;;
17199;SDS011;8716;52.268;20.968;2023-01-29T04:00:02;6.97;;;6.57;;
17199;SDS011;8716;52.268;20.968;2023-01-29T04:03:15;5.85;;;4.45;;
17199;SDS011;8716;52.268;20.968;2023-01-29T04:05:48;10.00;;;5.18;;
17199;SDS011;8716;52.268;20.968;2023-01-29T04:08:33;5.50;;;5.20;;
17199;SDS011;8716;52.268;20.968;2023-01-29T04:11:06;5.97;;;5.68;;
17199;SDS011;8716;52.268;20.968;2023-01-29T04:13:37;8.18;;;6.32;;
17199;SDS011;8716;52.268;20.968;2023-01-29T04:16:08;10.02;;;4.47;;
17199;SDS011;8716;52.268;20.968;2023-01-29T04:18:54;5.00;;;4.70;;
17199;SDS011;8716;52.268;20.968;2023-01-29T04:21:29;8.70;;;5.70;;
17199;SDS011;8716;52.268;20.968;2023-01-29T04:23:58;8.52;;;4.68;;
17199;SDS011;8716;52.268;20.968;2023-01-29T04:26:32;4.55;;;4.25;;
17199;SDS011;8716;52.268;20.968;2023-01-29T04:29:23;6.45;;;4.78;;
17199;SDS011;8716;52.268;20.968;2023-01-29T04:32:02;8.57;;;8.10;;
17199;SDS011;8716;52.268;20.968;2023-01-29T04:34:43;4.90;;;4.63;;
17199;SDS011;8716;52.268;20.968;2023-01-29T04:37:30;5.30;;;5.00;;
17199;SDS011;8716;52.268;20.968;2023-01-29T04:40:07;6.15;;;5.82;;
17199;SDS011;8716;52.268;20.968;2023-01-29T04:42:43;5.63;;;5.30;;
17199;SDS011;8716;52.268;20.968;2023-01-29T04:45:19;4.47;;;4.18;;
17199;SDS011;8716;52.268;20.968;2023-01-29T04:47:56;8.18;;;4.97;;
17199;SDS011;8716;52.268;20.968;2023-01-29T04:50:36;6.75;;;6.35;;
17199;SDS011;8716;52.268;20.968;2023-01-29T04:53:09;4.43;;;3.03;;
17199;SDS011;8716;52.268;20.968;2023-01-29T04:55:42;4.05;;;3.83;;
17199;SDS011;8716;52.268;20.968;2023-01-29T04:58:17;6.60;;;6.20;;
17199;SDS011;8716;52.268;20.968;2023-01-29T05:00:53;6.38;;;5.68;;
17199;SDS011;8716;52.268;20.968;2023-01-29T05:03:22;4.75;;;3.00;;
17199;SDS011;8716;52.268;20.968;2023-01-29T05:05:54;4.85;;;4.10;;
17199;SDS011;8716;52.268;20.968;2023-01-29T05:08:25;5.75;;;5.45;;
17199;SDS011;8716;52.268;20.968;2023-01-29T05:10:56;5.18;;;3.60;;
17199;SDS011;8716;52.268;20.968;2023-01-29T05:13:28;6.68;;;6.28;;
17199;SDS011;8716;52.268;20.968;2023-01-29T05:15:59;4.32;;;4.03;;
17199;SDS011;8716;52.268;20.968;2023-01-29T05:18:32;12.68;;;5.15;;
17199;SDS011;8716;52.268;20.968;2023-01-29T05:21:04;3.97;;;3.78;;
17199;SDS011;8716;52.268;20.968;2023-01-29T05:23:36;6.07;;;5.78;;
17199;SDS011;8716;52.268;20.968;2023-01-29T05:26:05;3.95;;;3.75;;
17199;SDS011;8716;52.268;20.968;2023-01-29T05:28:33;4.15;;;3.50;;
17199;SDS011;8716;52.268;20.968;2023-01-29T05:31:00;4.15;;;3.90;;
17199;SDS011;8716;52.268;20.968;2023-01-29T05:33:29;7.35;;;6.57;;
17199;SDS011;8716;52.268;20.968;2023-01-29T05:35:58;4.35;;;4.05;;
17199;SDS011;8716;52.268;20.968;2023-01-29T05:38:28;5.43;;;4.95;;
17199;SDS011;8716;52.268;20.968;2023-01-29T05:40:57;6.90;;;6.38;;
17199;SDS011;8716;52.268;20.968;2023-01-29T05:43:25;4.47;;;4.18;;
17199;SDS011;8716;52.268;20.968;2023-01-29T05:45:54;6.00;;;5.28;;
17199;SDS011;8716;52.268;20.968;2023-01-29T05:48:23;8.63;;;6.78;;
17199;SDS011;8716;52.268;20.968;2023-01-29T05:50:53;4.07;;;3.67;;
17199;SDS011;8716;52.268;20.968;2023-01-29T05:53:21;6.63;;;6.22;;
17199;SDS011;8716;52.268;20.968;2023-01-29T05:55:51;6.97;;;6.53;;
17199;SDS011;8716;52.268;20.968;2023-01-29T05:58:19;8.23;;;6.38;;
17199;SDS011;8716;52.268;20.968;2023-01-29T06:00:47;6.38;;;6.00;;
17199;SDS011;8716;52.268;20.968;2023-01-29T06:03:16;5.45;;;5.15;;
17199;SDS011;8716;52.268;20.968;2023-01-29T06:05:44;13.73;;;7.00;;
17199;SDS011;8716;52.268;20.968;2023-01-29T06:08:12;5.03;;;4.72;;
17199;SDS011;8716;52.268;20.968;2023-01-29T06:10:40;27.58;;;7.35;;
17199;SDS011;8716;52.268;20.968;2023-01-29T06:13:10;6.80;;;6.40;;
17199;SDS011;8716;52.268;20.968;2023-01-29T06:15:38;9.90;;;6.57;;
17199;SDS011;8716;52.268;20.968;2023-01-29T06:18:07;6.38;;;6.00;;
17199;SDS011;8716;52.268;20.968;2023-01-29T06:20:38;13.18;;;7.57;;
17199;SDS011;8716;52.268;20.968;2023-01-29T06:23:06;5.93;;;5.63;;
17199;SDS011;8716;52.268;20.968;2023-01-29T06:25:34;10.45;;;8.32;;
17199;SDS011;8716;52.268;20.968;2023-01-29T06:28:03;6.68;;;6.28;;
17199;SDS011;8716;52.268;20.968;2023-01-29T06:30:32;7.82;;;5.07;;
17199;SDS011;8716;52.268;20.968;2023-01-29T06:33:03;5.53;;;5.13;;
17199;SDS011;8716;52.268;20.968;2023-01-29T06:35:31;5.20;;;4.90;;
17199;SDS011;8716;52.268;20.968;2023-01-29T06:38:01;6.72;;;6.32;;
17199;SDS011;8716;52.268;20.968;2023-01-29T06:40:30;7.50;;;6.30;;
17199;SDS011;8716;52.268;20.968;2023-01-29T06:42:58;5.53;;;5.20;;
17199;SDS011;8716;52.268;20.968;2023-01-29T06:45:27;8.35;;;7.78;;
17199;SDS011;8716;52.268;20.968;2023-01-29T06:47:56;6.07;;;5.75;;
17199;SDS011;8716;52.268;20.968;2023-01-29T06:50:27;8.20;;;5.20;;
17199;SDS011;8716;52.268;20.968;2023-01-29T06:52:57;5.05;;;4.75;;
17199;SDS011;8716;52.268;20.968;2023-01-29T06:55:26;9.30;;;8.80;;
17199;SDS011;8716;52.268;20.968;2023-01-29T06:57:54;7.60;;;7.20;;
17199;SDS011;8716;52.268;20.968;2023-01-29T07:00:22;5.22;;;4.95;;
17199;SDS011;8716;52.268;20.968;2023-01-29T07:02:52;4.68;;;4.38;;
17199;SDS011;8716;52.268;20.968;2023-01-29T07:05:25;13.23;;;8.25;;
17199;SDS011;8716;52.268;20.968;2023-01-29T07:07:53;4.32;;;4.05;;
17199;SDS011;8716;52.268;20.968;2023-01-29T07:10:21;6.25;;;5.90;;
17199;SDS011;8716;52.268;20.968;2023-01-29T07:12:57;5.70;;;5.40;;
17199;SDS011;8716;52.268;20.968;2023-01-29T07:15:27;7.53;;;7.00;;
17199;SDS011;8716;52.268;20.968;2023-01-29T07:17:56;6.28;;;5.93;;
17199;SDS011;8716;52.268;20.968;2023-01-29T07:20:29;9.52;;;8.80;;
17199;SDS011;8716;52.268;20.968;2023-01-29T07:22:58;14.93;;;7.32;;
17199;SDS011;8716;52.268;20.968;2023-01-29T07:25:29;14.88;;;9.05;;
17199;SDS011;8716;52.268;20.968;2023-01-29T07:28:00;6.65;;;5.22;;
17199;SDS011;8716;52.268;20.968;2023-01-29T07:30:28;10.05;;;8.73;;
17199;SDS011;8716;52.268;20.968;2023-01-29T07:33:00;10.15;;;6.72;;
17199;SDS011;8716;52.268;20.968;2023-01-29T07:35:36;5.60;;;5.30;;
17199;SDS011;8716;52.268;20.968;2023-01-29T07:38:05;5.57;;;5.28;;
17199;SDS011;8716;52.268;20.968;2023-01-29T07:40:34;4.80;;;4.50;;
17199;SDS011;8716;52.268;20.968;2023-01-29T07:43:04;6.88;;;6.47;;
17199;SDS011;8716;52.268;20.968;2023-01-29T07:45:36;7.25;;;6.85;;
17199;SDS011;8716;52.268;20.968;2023-01-29T07:48:06;5.07;;;4.72;;
17199;SDS011;8716;52.268;20.968;2023-01-29T07:50:39;7.53;;;7.13;;
17199;SDS011;8716;52.268;20.968;2023-01-29T07:53:07;7.78;;;6.72;;
17199;SDS011;8716;52.268;20.968;2023-01-29T07:55:40;13.52;;;6.40;;
17199;SDS011;8716;52.268;20.968;2023-01-29T07:58:10;7.50;;;7.10;;
17199;SDS011;8716;52.268;20.968;2023-01-29T08:00:39;6.85;;;6.18;;
17199;SDS011;8716;52.268;20.968;2023-01-29T08:03:10;9.32;;;8.20;;
17199;SDS011;8716;52.268;20.968;2023-01-29T08:05:42;5.43;;;5.13;;
17199;SDS011;8716;52.268;20.968;2023-01-29T08:08:11;8.15;;;7.75;;
17199;SDS011;8716;52.268;20.968;2023-01-29T08:10:40;6.53;;;6.13;;
17199;SDS011;8716;52.268;20.968;2023-01-29T08:13:08;5.70;;;5.40;;
17199;SDS011;8716;52.268;20.968;2023-01-29T08:15:36;6.32;;;5.97;;
17199;SDS011;8716;52.268;20.968;2023-01-29T08:18:05;8.18;;;7.78;;
17199;SDS011;8716;52.268;20.968;2023-01-29T08:20:35;7.43;;;6.80;;
17199;SDS011;8716;52.268;20.968;2023-01-29T08:23:05;8.00;;;7.05;;
17199;SDS011;8716;52.268;20.968;2023-01-29T08:25:35;7.20;;;6.70;;
17199;SDS011;8716;52.268;20.968;2023-01-29T08:28:03;13.15;;;7.40;;
17199;SDS011;8716;52.268;20.968;2023-01-29T08:30:32;8.63;;;5.95;;
17199;SDS011;8716;52.268;20.968;2023-01-29T08:33:02;10.80;;;8.88;;
17199;SDS011;8716;52.268;20.968;2023-01-29T08:35:31;6.57;;;6.20;;
17199;SDS011;8716;52.268;20.968;2023-01-29T08:38:00;6.90;;;6.50;;
17199;SDS011;8716;52.268;20.968;2023-01-29T08:40:31;5.80;;;5.53;;
17199;SDS011;8716;52.268;20.968;2023-01-29T08:43:01;6.15;;;5.85;;
17199;SDS011;8716;52.268;20.968;2023-01-29T08:45:37;6.00;;;5.45;;
17199;SDS011;8716;52.268;20.968;2023-01-29T08:48:08;5.63;;;5.32;;
17199;SDS011;8716;52.268;20.968;2023-01-29T08:50:36;7.18;;;6.78;;
17199;SDS011;8716;52.268;20.968;2023-01-29T08:53:05;5.40;;;5.10;;
17199;SDS011;8716;52.268;20.968;2023-01-29T08:55:36;7.38;;;6.97;;
17199;SDS011;8716;52.268;20.968;2023-01-29T08:58:09;5.25;;;4.95;;
17199;SDS011;8716;52.268;20.968;2023-01-29T09:00:38;8.15;;;7.72;;
17199;SDS011;8716;52.268;20.968;2023-01-29T09:03:06;8.27;;;7.82;;
17199;SDS011;8716;52.268;20.968;2023-01-29T09:05:35;4.75;;;4.20;;
17199;SDS011;8716;52.268;20.968;2023-01-29T09:08:04;16.23;;;5.32;;
17199;SDS011;8716;52.268;20.968;2023-01-29T09:10:34;10.85;;;9.20;;
17199;SDS011;8716;52.268;20.968;2023-01-29T09:13:03;7.13;;;6.72;;
17199;SDS011;8716;52.268;20.968;2023-01-29T09:15:32;8.95;;;8.45;;
17199;SDS011;8716;52.268;20.968;2023-01-29T09:18:01;6.72;;;5.05;;
17199;SDS011;8716;52.268;20.968;2023-01-29T09:20:30;6.22;;;5.90;;
17199;SDS011;8716;52.268;20.968;2023-01-29T09:23:02;6.78;;;6.38;;
17199;SDS011;8716;52.268;20.968;2023-01-29T09:25:31;9.13;;;7.30;;
17199;SDS011;8716;52.268;20.968;2023-01-29T09:28:01;7.45;;;7.05;;
17199;SDS011;8716;52.268;20.968;2023-01-29T09:30:29;5.85;;;5.55;;
17199;SDS011;8716;52.268;20.968;2023-01-29T09:33:00;8.52;;;6.03;;
17199;SDS011;8716;52.268;20.968;2023-01-29T09:35:29;8.40;;;5.90;;
17199;SDS011;8716;52.268;20.968;2023-01-29T09:38:01;3.78;;;3.60;;
17199;SDS011;8716;52.268;20.968;2023-01-29T09:40:33;10.45;;;5.85;;
17199;SDS011;8716;52.268;20.968;2023-01-29T09:43:11;13.65;;;8.55;;
17199;SDS011;8716;52.268;20.968;2023-01-29T09:45:44;5.70;;;5.32;;
17199;SDS011;8716;52.268;20.968;2023-01-29T09:48:20;8.40;;;6.65;;
17199;SDS011;8716;52.268;20.968;2023-01-29T09:50:52;9.50;;;5.80;;
17199;SDS011;8716;52.268;20.968;2023-01-29T09:53:23;7.70;;;7.30;;
17199;SDS011;8716;52.268;20.968;2023-01-29T09:55:58;10.38;;;5.63;;
17199;SDS011;8716;52.268;20.968;2023-01-29T09:58:31;5.60;;;5.30;;
17199;SDS011;8716;52.268;20.968;2023-01-29T10:01:06;9.02;;;5.18;;
17199;SDS011;8716;52.268;20.968;2023-01-29T10:03:43;4.82;;;4.53;;
17199;SDS011;8716;52.268;20.968;2023-01-29T10:06:27;9.52;;;5.20;;
17199;SDS011;8716;52.268;20.968;2023-01-29T10:12:14;5.70;;;5.40;;
17199;SDS011;8716;52.268;20.968;2023-01-29T10:15:00;6.90;;;6.50;;
17199;SDS011;8716;52.268;20.968;2023-01-29T10:20:31;11.63;;;7.13;;
17199;SDS011;8716;52.268;20.968;2023-01-29T10:23:15;8.90;;;8.40;;
17199;SDS011;8716;52.268;20.968;2023-01-29T10:25:48;7.85;;;5.75;;
17199;SDS011;8716;52.268;20.968;2023-01-29T10:28:17;9.70;;;7.88;;
17199;SDS011;8716;52.268;20.968;2023-01-29T10:30:49;8.80;;;7.60;;
17199;SDS011;8716;52.268;20.968;2023-01-29T10:33:24;5.03;;;4.72;;
17199;SDS011;8716;52.268;20.968;2023-01-29T10:36:18;8.80;;;8.30;;
17199;SDS011;8716;52.268;20.968;2023-01-29T10:38:49;6.75;;;6.35;;
17199;SDS011;8716;52.268;20.968;2023-01-29T10:41:24;6.10;;;5.78;;
17199;SDS011;8716;52.268;20.968;2023-01-29T10:44:07;23.65;;;7.25;;
17199;SDS011;8716;52.268;20.968;2023-01-29T10:47:12;8.25;;;7.85;;
17199;SDS011;8716;52.268;20.968;2023-01-29T10:53:02;8.60;;;4.35;;
17199;SDS011;8716;52.268;20.968;2023-01-29T10:55:45;5.65;;;5.35;;
17199;SDS011;8716;52.268;20.968;2023-01-29T10:58:22;7.30;;;6.90;;
17199;SDS011;8716;52.268;20.968;2023-01-29T11:00:57;6.93;;;6.28;;
17199;SDS011;8716;52.268;20.968;2023-01-29T11:03:27;10.40;;;6.78;;
17199;SDS011;8716;52.268;20.968;2023-01-29T11:06:00;16.92;;;7.10;;
17199;SDS011;8716;52.268;20.968;2023-01-29T11:08:36;6.20;;;5.70;;
17199;SDS011;8716;52.268;20.968;2023-01-29T11:11:11;12.18;;;8.73;;
17199;SDS011;8716;52.268;20.968;2023-01-29T11:13:44;6.47;;;6.07;;
17199;SDS011;8716;52.268;20.968;2023-01-29T11:16:17;6.53;;;6.10;;
17199;SDS011;8716;52.268;20.968;2023-01-29T11:18:51;8.02;;;7.60;;
17199;SDS011;8716;52.268;20.968;2023-01-29T11:21:23;8.13;;;5.78;;
17199;SDS011;8716;52.268;20.968;2023-01-29T11:26:41;7.18;;;5.90;;
17199;SDS011;8716;52.268;20.968;2023-01-29T11:32:10;7.32;;;6.93;;
17199;SDS011;8716;52.268;20.968;2023-01-29T11:35:01;15.93;;;10.60;;
17199;SDS011;8716;52.268;20.968;2023-01-29T11:37:32;7.97;;;7.57;;
17199;SDS011;8716;52.268;20.968;2023-01-29T11:40:28;5.60;;;5.15;;
17199;SDS011;8716;52.268;20.968;2023-01-29T11:43:11;6.60;;;6.20;;
17199;SDS011;8716;52.268;20.968;2023-01-29T11:45:45;5.20;;;4.78;;
17199;SDS011;8716;52.268;20.968;2023-01-29T11:48:16;5.85;;;5.55;;
17199;SDS011;8716;52.268;20.968;2023-01-29T11:50:51;17.25;;;8.48;;
17199;SDS011;8716;52.268;20.968;2023-01-29T11:53:32;8.25;;;7.75;;
17199;SDS011;8716;52.268;20.968;2023-01-29T11:56:14;5.53;;;5.22;;
17199;SDS011;8716;52.268;20.968;2023-01-29T11:58:47;11.00;;;7.32;;
17199;SDS011;8716;52.268;20.968;2023-01-29T12:01:17;7.93;;;6.63;;
17199;SDS011;8716;52.268;20.968;2023-01-29T12:03:55;6.63;;;6.22;;
17199;SDS011;8716;52.268;20.968;2023-01-29T12:06:27;9.63;;;6.72;;
17199;SDS011;8716;52.268;20.968;2023-01-29T12:09:00;12.07;;;6.13;;
17199;SDS011;8716;52.268;20.968;2023-01-29T12:11:35;6.63;;;6.22;;
17199;SDS011;8716;52.268;20.968;2023-01-29T12:14:04;6.78;;;6.38;;
17199;SDS011;8716;52.268;20.968;2023-01-29T12:16:49;9.68;;;7.90;;
17199;SDS011;8716;52.268;20.968;2023-01-29T12:19:28;7.85;;;7.45;;
17199;SDS011;8716;52.268;20.968;2023-01-29T12:22:03;8.90;;;8.40;;
17199;SDS011;8716;52.268;20.968;2023-01-29T12:24:37;7.22;;;6.82;;
17199;SDS011;8716;52.268;20.968;2023-01-29T12:27:13;8.98;;;8.48;;
17199;SDS011;8716;52.268;20.968;2023-01-29T12:29:48;11.38;;;8.70;;
17199;SDS011;8716;52.268;20.968;2023-01-29T12:32:26;7.32;;;6.47;;
17199;SDS011;8716;52.268;20.968;2023-01-29T12:35:00;6.28;;;5.93;;
17199;SDS011;8716;52.268;20.968;2023-01-29T12:37:37;9.90;;;8.50;;
17199;SDS011;8716;52.268;20.968;2023-01-29T12:40:12;8.02;;;6.85;;
17199;SDS011;8716;52.268;20.968;2023-01-29T12:42:43;10.27;;;9.77;;
17199;SDS011;8716;52.268;20.968;2023-01-29T12:45:16;7.63;;;6.07;;
17199;SDS011;8716;52.268;20.968;2023-01-29T12:47:46;9.48;;;8.80;;
17199;SDS011;8716;52.268;20.968;2023-01-29T12:50:18;12.23;;;10.55;;
17199;SDS011;8716;52.268;20.968;2023-01-29T12:52:51;8.38;;;6.53;;
17199;SDS011;8716;52.268;20.968;2023-01-29T12:55:23;6.75;;;6.35;;
17199;SDS011;8716;52.268;20.968;2023-01-29T12:57:55;8.48;;;6.47;;
17199;SDS011;8716;52.268;20.968;2023-01-29T13:00:26;15.68;;;9.10;;
17199;SDS011;8716;52.268;20.968;2023-01-29T13:02:58;6.75;;;6.35;;
17199;SDS011;8716;52.268;20.968;2023-01-29T13:05:33;10.85;;;9.23;;
17199;SDS011;8716;52.268;20.968;2023-01-29T13:08:09;9.05;;;6.85;;
17199;SDS011;8716;52.268;20.968;2023-01-29T13:10:41;16.00;;;8.20;;
17199;SDS011;8716;52.268;20.968;2023-01-29T13:13:13;14.57;;;9.38;;
17199;SDS011;8716;52.268;20.968;2023-01-29T13:15:48;10.38;;;9.85;;
17199;SDS011;8716;52.268;20.968;2023-01-29T13:18:34;15.80;;;15.00;;
17199;SDS011;8716;52.268;20.968;2023-01-29T13:21:09;8.13;;;7.72;;
17199;SDS011;8716;52.268;20.968;2023-01-29T13:23:46;11.90;;;7.43;;
17199;SDS011;8716;52.268;20.968;2023-01-29T13:26:17;9.52;;;9.02;;
17199;SDS011;8716;52.268;20.968;2023-01-29T13:28:47;9.15;;;8.65;;
17199;SDS011;8716;52.268;20.968;2023-01-29T13:31:24;15.20;;;10.43;;
17199;SDS011;8716;52.268;20.968;2023-01-29T13:34:02;10.07;;;9.57;;
17199;SDS011;8716;52.268;20.968;2023-01-29T13:36:46;11.88;;;11.27;;
17199;SDS011;8716;52.268;20.968;2023-01-29T13:39:20;9.50;;;6.72;;
17199;SDS011;8716;52.268;20.968;2023-01-29T13:41:52;10.30;;;9.13;;
17199;SDS011;8716;52.268;20.968;2023-01-29T13:44:23;10.77;;;10.18;;
17199;SDS011;8716;52.268;20.968;2023-01-29T13:46:55;13.55;;;9.20;;
17199;SDS011;8716;52.268;20.968;2023-01-29T13:49:29;7.60;;;7.20;;
17199;SDS011;8716;52.268;20.968;2023-01-29T13:54:58;16.58;;;10.57;;
17199;SDS011;8716;52.268;20.968;2023-01-29T13:57:34;18.83;;;10.95;;
17199;SDS011;8716;52.268;20.968;2023-01-29T14:06:37;9.82;;;7.63;;
17199;SDS011;8716;52.268;20.968;2023-01-29T14:09:33;6.38;;;6.03;;
17199;SDS011;8716;52.268;20.968;2023-01-29T14:12:31;8.10;;;7.70;;
17199;SDS011;8716;52.268;20.968;2023-01-29T14:15:13;10.00;;;9.50;;
17199;SDS011;8716;52.268;20.968;2023-01-29T14:17:53;9.75;;;9.25;;
17199;SDS011;8716;52.268;20.968;2023-01-29T14:20:49;14.15;;;9.10;;
17199;SDS011;8716;52.268;20.968;2023-01-29T14:23:27;16.20;;;11.30;;
17199;SDS011;8716;52.268;20.968;2023-01-29T14:26:18;12.43;;;9.77;;
17199;SDS011;8716;52.268;20.968;2023-01-29T14:28:55;11.32;;;9.05;;
17199;SDS011;8716;52.268;20.968;2023-01-29T14:31:30;9.57;;;9.10;;
17199;SDS011;8716;52.268;20.968;2023-01-29T14:34:05;17.23;;;9.10;;
17199;SDS011;8716;52.268;20.968;2023-01-29T14:36:41;14.80;;;13.97;;
17199;SDS011;8716;52.268;20.968;2023-01-29T14:39:18;12.05;;;11.25;;
17199;SDS011;8716;52.268;20.968;2023-01-29T14:42:13;13.52;;;12.82;;
17199;SDS011;8716;52.268;20.968;2023-01-29T14:47:53;10.88;;;9.18;;
17199;SDS011;8716;52.268;20.968;2023-01-29T14:50:42;9.45;;;8.95;;
17199;SDS011;8716;52.268;20.968;2023-01-29T14:53:27;10.10;;;9.60;;
17199;SDS011;8716;52.268;20.968;2023-01-29T14:56:02;14.30;;;12.98;;
17199;SDS011;8716;52.268;20.968;2023-01-29T14:58:38;13.52;;;10.57;;
17199;SDS011;8716;52.268;20.968;2023-01-29T15:01:16;10.10;;;9.10;;
17199;SDS011;8716;52.268;20.968;2023-01-29T15:03:49;7.30;;;5.97;;
17199;SDS011;8716;52.268;20.968;2023-01-29T15:06:22;17.52;;;11.45;;
17199;SDS011;8716;52.268;20.968;2023-01-29T15:09:01;9.05;;;8.55;;
17199;SDS011;8716;52.268;20.968;2023-01-29T15:11:33;13.02;;;12.35;;
17199;SDS011;8716;52.268;20.968;2023-01-29T15:14:13;8.52;;;8.05;;
17199;SDS011;8716;52.268;20.968;2023-01-29T15:16:52;19.42;;;14.13;;
17199;SDS011;8716;52.268;20.968;2023-01-29T15:19:30;16.35;;;15.55;;
17199;SDS011;8716;52.268;20.968;2023-01-29T15:22:03;15.75;;;11.77;;
17199;SDS011;8716;52.268;20.968;2023-01-29T15:24:32;7.95;;;7.28;;
17199;SDS011;8716;52.268;20.968;2023-01-29T15:27:01;8.13;;;5.85;;
17199;SDS011;8716;52.268;20.968;2023-01-29T15:29:29;9.98;;;8.85;;
17199;SDS011;8716;52.268;20.968;2023-01-29T15:31:59;13.57;;;12.88;;
17199;SDS011;8716;52.268;20.968;2023-01-29T15:34:28;7.30;;;6.00;;
17199;SDS011;8716;52.268;20.968;2023-01-29T15:36:56;11.75;;;9.38;;
17199;SDS011;8716;52.268;20.968;2023-01-29T15:39:25;14.38;;;11.07;;
17199;SDS011;8716;52.268;20.968;2023-01-29T15:42:12;16.60;;;8.02;;
17199;SDS011;8716;52.268;20.968;2023-01-29T15:44:47;20.65;;;12.45;;
17199;SDS011;8716;52.268;20.968;2023-01-29T15:47:19;11.43;;;8.35;;
17199;SDS011;8716;52.268;20.968;2023-01-29T15:49:50;13.25;;;9.38;;